createdAt,value
2023-05-15T00:01:42.635Z,34.01
2023-05-15T00:04:13.217Z,34.25
2023-05-15T00:06:43.438Z,34.26
2023-05-15T00:09:13.586Z,34.19
2023-05-15T00:11:43.653Z,34.29
2023-05-15T00:14:14.322Z,34.34
2023-05-15T00:16:44.522Z,34.46
2023-05-15T00:19:15.112Z,34.28
2023-05-15T00:21:45.366Z,34.44
2023-05-15T00:24:15.570Z,34.35
2023-05-15T00:26:45.795Z,34.52
2023-05-15T00:29:16.004Z,34.50
2023-05-15T00:31:46.242Z,34.66
2023-05-15T00:34:16.428Z,34.33
2023-05-15T00:36:46.537Z,34.58
2023-05-15T00:39:16.652Z,34.65
2023-05-15T00:41:48.653Z,34.67
2023-05-15T00:44:23.232Z,34.51
2023-05-15T00:46:55.430Z,34.74
2023-05-15T00:49:29.634Z,34.71
2023-05-15T00:52:03.886Z,34.70
2023-05-15T00:54:34.600Z,34.76
2023-05-15T00:57:06.293Z,34.69
2023-05-15T00:59:37.340Z,34.87
2023-05-15T01:02:07.771Z,34.83
2023-05-15T01:04:38.117Z,34.61
2023-05-15T01:07:08.471Z,34.75
2023-05-15T01:09:43.760Z,34.78
2023-05-15T01:12:17.142Z,34.89
2023-05-15T01:14:47.451Z,34.72
2023-05-15T01:17:17.812Z,34.84
2023-05-15T01:19:51.283Z,34.95
2023-05-15T01:22:43.299Z,35.06
2023-05-15T01:25:46.392Z,35.59
2023-05-15T01:28:22.474Z,35.51
2023-05-15T01:30:56.800Z,35.02
2023-05-15T01:33:53.676Z,35.78
2023-05-15T01:36:35.912Z,35.41
2023-05-15T01:39:08.090Z,34.89
2023-05-15T01:42:13.825Z,35.49
2023-05-15T01:44:49.487Z,35.05
2023-05-15T01:47:24.900Z,34.99
2023-05-15T01:49:57.874Z,34.98
2023-05-15T01:52:41.829Z,35.41
2023-05-15T01:55:15.033Z,35.05
2023-05-15T01:57:48.364Z,35.21
2023-05-15T02:00:19.713Z,35.35
2023-05-15T02:02:51.136Z,35.35
2023-05-15T02:05:27.661Z,35.31
2023-05-15T02:08:05.112Z,35.25
2023-05-15T02:10:40.945Z,35.45
2023-05-15T02:13:14.291Z,35.37
2023-05-15T02:15:45.951Z,35.37
2023-05-15T02:18:16.910Z,35.23
2023-05-15T02:20:47.650Z,35.38
2023-05-15T02:23:18.560Z,35.48
2023-05-15T02:25:48.877Z,35.45
2023-05-15T02:28:39.351Z,36.00
2023-05-15T02:31:22.309Z,35.96
2023-05-15T02:34:17.010Z,35.81
2023-05-15T02:36:49.089Z,35.37
2023-05-15T02:39:23.722Z,35.44
2023-05-15T02:41:54.290Z,35.50
2023-05-15T02:44:26.286Z,35.63
2023-05-15T02:46:58.037Z,35.65
2023-05-15T02:49:31.156Z,35.55
2023-05-15T02:52:02.090Z,35.87
2023-05-15T02:54:32.466Z,35.65
2023-05-15T02:57:02.782Z,35.53
2023-05-15T02:59:33.269Z,35.48
2023-05-15T03:02:04.080Z,35.63
2023-05-15T03:04:34.420Z,35.57
2023-05-15T03:07:05.077Z,35.46
2023-05-15T03:09:35.375Z,35.58
2023-05-15T03:12:06.018Z,35.62
2023-05-15T03:14:39.046Z,35.35
2023-05-15T03:17:09.546Z,35.50
2023-05-15T03:19:39.995Z,35.55
2023-05-15T03:22:10.261Z,35.59
2023-05-15T03:24:40.636Z,35.52
2023-05-15T03:27:10.891Z,35.37
2023-05-15T03:29:42.884Z,35.50
2023-05-15T03:32:13.533Z,35.65
2023-05-15T03:34:44.006Z,35.56
2023-05-15T03:37:14.439Z,35.54
2023-05-15T03:39:44.960Z,35.53
2023-05-15T03:42:15.553Z,35.58
2023-05-15T03:44:45.906Z,35.71
2023-05-15T03:47:17.055Z,35.78
2023-05-15T03:49:50.803Z,35.84
2023-05-15T03:52:21.613Z,35.77
2023-05-15T03:54:52.078Z,35.47
2023-05-15T03:57:22.406Z,36.08
2023-05-15T03:59:52.745Z,35.81
2023-05-15T04:02:23.640Z,35.55
2023-05-15T04:04:54.115Z,36.01
2023-05-15T04:07:24.428Z,35.99
2023-05-15T04:09:54.885Z,35.86
2023-05-15T04:12:28.510Z,35.87
2023-05-15T04:15:18.505Z,36.66
2023-05-15T04:17:51.902Z,35.62
2023-05-15T04:20:24.527Z,35.91
2023-05-15T04:22:55.157Z,36.02
2023-05-15T04:25:26.175Z,36.12
2023-05-15T04:27:57.773Z,36.14
2023-05-15T04:30:28.100Z,36.14
2023-05-15T04:32:58.862Z,36.14
2023-05-15T04:35:32.038Z,36.63
2023-05-15T04:38:02.715Z,36.53
2023-05-15T04:40:33.138Z,36.45
2023-05-15T04:43:04.452Z,36.39
2023-05-15T04:45:34.825Z,36.35
2023-05-15T04:48:06.273Z,36.51
2023-05-15T04:50:37.122Z,36.58
2023-05-15T04:53:07.371Z,36.47
2023-05-15T04:55:37.642Z,36.72
2023-05-15T04:58:08.368Z,36.71
2023-05-15T05:00:39.431Z,36.73
2023-05-15T05:03:10.021Z,36.65
2023-05-15T05:05:40.384Z,36.78
2023-05-15T05:08:10.749Z,36.79
2023-05-15T05:10:41.251Z,36.86
2023-05-15T05:13:11.546Z,36.90
2023-05-15T05:15:42.014Z,37.05
2023-05-15T05:18:12.251Z,36.95
2023-05-15T05:20:42.534Z,36.88
2023-05-15T05:23:15.202Z,37.02
2023-05-15T05:25:45.560Z,37.13
2023-05-15T05:28:18.918Z,37.07
2023-05-15T05:30:50.042Z,37.06
2023-05-15T05:33:20.510Z,37.13
2023-05-15T05:35:52.235Z,37.30
2023-05-15T05:38:22.435Z,37.11
2023-05-15T05:40:55.166Z,37.28
2023-05-15T05:43:27.016Z,37.39
2023-05-15T05:46:05.276Z,37.19
2023-05-15T05:48:38.519Z,37.28
2023-05-15T05:51:13.982Z,37.13
2023-05-15T05:53:44.306Z,37.04
2023-05-15T05:56:16.247Z,37.28
2023-05-15T05:58:49.003Z,37.15
2023-05-15T06:01:20.948Z,37.41
2023-05-15T06:03:52.157Z,37.38
2023-05-15T06:06:22.945Z,37.38
2023-05-15T06:08:54.956Z,37.38
2023-05-15T06:11:27.433Z,38.19
2023-05-15T06:13:57.697Z,38.42
2023-05-15T06:16:27.989Z,38.48
2023-05-15T06:18:58.351Z,38.30
2023-05-15T06:21:29.656Z,38.45
2023-05-15T06:24:02.591Z,38.19
2023-05-15T06:26:34.917Z,38.12
2023-05-15T06:29:05.329Z,38.10
2023-05-15T06:31:35.787Z,38.05
2023-05-15T06:34:06.666Z,38.02
2023-05-15T06:36:37.596Z,38.11
2023-05-15T06:39:10.911Z,38.10
2023-05-15T06:41:41.266Z,38.00
2023-05-15T06:44:11.762Z,37.86
2023-05-15T06:46:42.148Z,37.87
2023-05-15T06:49:12.649Z,37.75
2023-05-15T06:51:42.932Z,37.90
2023-05-15T06:54:14.757Z,37.91
2023-05-15T06:56:45.048Z,37.79
2023-05-15T06:59:15.383Z,37.99
2023-05-15T07:01:45.767Z,38.00
2023-05-15T07:04:16.111Z,38.51
2023-05-15T07:06:46.847Z,38.40
2023-05-15T07:09:17.187Z,38.29
2023-05-15T07:11:47.534Z,38.54
2023-05-15T07:14:17.925Z,38.61
2023-05-15T07:16:48.219Z,38.44
2023-05-15T07:19:27.037Z,38.86
2023-05-15T07:21:57.400Z,38.48
2023-05-15T07:24:27.897Z,38.49
2023-05-15T07:26:59.438Z,38.62
2023-05-15T07:29:29.913Z,38.46
2023-05-15T07:32:01.055Z,38.47
2023-05-15T07:34:31.616Z,38.26
2023-05-15T07:37:02.001Z,38.29
2023-05-15T07:39:32.550Z,38.43
2023-05-15T07:42:02.945Z,38.28
2023-05-15T07:44:33.298Z,38.39
2023-05-15T07:47:03.925Z,38.29
2023-05-15T07:49:34.411Z,38.38
2023-05-15T07:52:05.049Z,38.44
2023-05-15T07:54:35.340Z,38.46
2023-05-15T07:57:06.478Z,38.51
2023-05-15T07:59:37.042Z,38.29
2023-05-15T08:02:07.782Z,38.53
2023-05-15T08:04:38.203Z,38.50
2023-05-15T08:07:08.673Z,38.42
2023-05-15T08:09:39.047Z,38.23
2023-05-15T08:12:22.801Z,39.10
2023-05-15T08:14:55.133Z,38.19
2023-05-15T08:17:26.357Z,38.20
2023-05-15T08:19:56.879Z,38.19
2023-05-15T08:22:27.317Z,38.37
2023-05-15T08:24:58.641Z,38.15
2023-05-15T08:27:29.062Z,38.30
2023-05-15T08:29:59.486Z,38.27
2023-05-15T08:32:29.837Z,38.20
2023-05-15T08:35:00.584Z,38.16
2023-05-15T08:37:31.026Z,38.73
2023-05-15T08:40:01.360Z,38.12
2023-05-15T08:42:35.924Z,38.28
2023-05-15T08:45:08.244Z,37.96
2023-05-15T08:47:41.191Z,37.96
2023-05-15T08:50:14.494Z,37.84
2023-05-15T08:52:48.612Z,38.04
2023-05-15T08:55:21.063Z,37.60
2023-05-15T08:57:55.740Z,38.06
2023-05-15T09:00:27.095Z,37.66
2023-05-15T09:03:02.523Z,37.64
2023-05-15T09:05:33.213Z,37.56
2023-05-15T09:08:05.928Z,37.43
2023-05-15T09:10:36.862Z,37.64
2023-05-15T09:13:08.106Z,37.23
2023-05-15T09:15:38.434Z,37.23
2023-05-15T09:18:09.893Z,37.18
2023-05-15T09:20:40.287Z,37.41
2023-05-15T09:23:27.211Z,37.67
2023-05-15T09:26:12.384Z,37.56
2023-05-15T09:28:51.301Z,37.33
2023-05-15T09:31:27.804Z,37.68
2023-05-15T09:34:05.006Z,37.61
2023-05-15T09:36:35.799Z,37.68
2023-05-15T09:39:11.057Z,37.95
2023-05-15T09:41:45.068Z,38.88
2023-05-15T09:44:26.566Z,39.10
2023-05-15T09:46:58.093Z,38.59
2023-05-15T09:49:33.316Z,40.64
2023-05-15T09:52:08.420Z,40.43
2023-05-15T09:54:38.976Z,40.11
2023-05-15T09:57:11.884Z,40.89
2023-05-15T09:59:47.244Z,42.39
2023-05-15T10:02:35.543Z,43.22
2023-05-15T10:05:06.156Z,42.91
2023-05-15T10:07:37.066Z,42.67
2023-05-15T10:10:08.078Z,43.28
2023-05-15T10:12:39.143Z,44.11
2023-05-15T10:15:10.270Z,44.82
2023-05-15T10:17:42.641Z,44.83
2023-05-15T10:20:15.986Z,45.17
2023-05-15T10:22:50.633Z,46.35
2023-05-15T10:25:30.070Z,46.98
2023-05-15T10:28:01.592Z,45.90
2023-05-15T10:30:32.584Z,45.98
2023-05-15T10:33:05.398Z,45.53
2023-05-15T10:35:36.648Z,44.82
2023-05-15T10:38:07.782Z,45.03
2023-05-15T10:40:40.413Z,45.05
2023-05-15T10:43:12.456Z,45.15
2023-05-15T10:45:44.138Z,45.45
2023-05-15T10:48:16.194Z,45.11
2023-05-15T10:50:48.956Z,45.30
2023-05-15T10:53:20.599Z,45.30
2023-05-15T10:55:52.416Z,44.94
2023-05-15T10:58:26.076Z,46.06
2023-05-15T11:00:56.478Z,45.15
2023-05-15T11:03:48.176Z,45.85
2023-05-15T11:06:31.128Z,46.60
2023-05-15T11:09:37.700Z,47.12
2023-05-15T11:12:10.056Z,44.45
2023-05-15T11:15:04.716Z,45.40
2023-05-15T11:17:35.328Z,44.44
2023-05-15T11:20:07.673Z,45.05
2023-05-15T11:22:39.079Z,44.30
2023-05-15T11:25:12.816Z,44.70
2023-05-15T11:27:44.891Z,44.49
2023-05-15T11:30:22.482Z,45.45
2023-05-15T11:32:59.250Z,44.38
2023-05-15T11:35:31.479Z,44.20
2023-05-15T11:38:11.468Z,45.48
2023-05-15T11:40:47.145Z,44.91
2023-05-15T11:43:18.898Z,44.62
2023-05-15T11:45:56.349Z,44.86
2023-05-15T11:48:32.644Z,45.21
2023-05-15T11:51:03.310Z,45.62
2023-05-15T11:53:33.879Z,44.12
2023-05-15T11:56:04.695Z,44.04
2023-05-15T11:58:35.146Z,44.18
2023-05-15T12:01:05.545Z,43.73
2023-05-15T12:03:36.635Z,44.06
2023-05-15T12:06:07.676Z,44.14
2023-05-15T12:08:44.202Z,43.96
2023-05-15T12:11:15.183Z,44.34
2023-05-15T12:13:45.851Z,44.44
2023-05-15T12:16:18.152Z,44.56
2023-05-15T12:18:50.418Z,44.77
2023-05-15T12:21:21.243Z,44.56
2023-05-15T12:24:06.265Z,44.92
2023-05-15T12:26:38.716Z,44.48
2023-05-15T12:29:09.637Z,44.63
2023-05-15T12:31:40.520Z,44.78
2023-05-15T12:34:12.336Z,44.70
2023-05-15T12:36:46.509Z,44.40
2023-05-15T12:39:19.685Z,44.47
2023-05-15T12:41:53.856Z,44.88
2023-05-15T12:44:26.556Z,45.08
2023-05-15T12:46:57.046Z,45.45
2023-05-15T12:49:28.541Z,45.06
2023-05-15T12:52:09.115Z,45.25
2023-05-15T12:54:43.943Z,44.96
2023-05-15T12:57:14.968Z,44.66
2023-05-15T12:59:52.670Z,44.43
2023-05-15T13:02:30.719Z,44.82
2023-05-15T13:05:10.839Z,44.93
2023-05-15T13:07:45.120Z,45.08
2023-05-15T13:10:18.419Z,45.38
2023-05-15T13:12:53.466Z,45.54
2023-05-15T13:15:36.687Z,45.31
2023-05-15T13:18:17.640Z,45.91
2023-05-15T13:20:54.342Z,46.32
2023-05-15T13:23:25.769Z,46.69
2023-05-15T13:25:56.239Z,46.99
2023-05-15T13:28:26.821Z,47.27
2023-05-15T13:30:57.396Z,47.71
2023-05-15T13:33:29.961Z,48.05
2023-05-15T13:36:00.427Z,48.37
2023-05-15T13:38:31.042Z,49.08
2023-05-15T13:41:01.556Z,49.12
2023-05-15T13:43:32.171Z,49.17
2023-05-15T13:46:05.030Z,49.74
2023-05-15T13:48:38.525Z,50.06
2023-05-15T13:51:09.076Z,50.07
2023-05-15T13:53:39.683Z,50.38
2023-05-15T13:56:10.236Z,50.75
2023-05-15T13:58:41.755Z,50.83
2023-05-15T14:01:14.566Z,51.19
2023-05-15T14:03:45.764Z,51.26
2023-05-15T14:06:16.065Z,51.21
2023-05-15T14:08:46.555Z,51.69
2023-05-15T14:11:17.148Z,51.93
2023-05-15T14:13:47.851Z,52.19
2023-05-15T14:16:18.152Z,52.28
2023-05-15T14:18:48.623Z,52.00
2023-05-15T14:21:18.939Z,52.80
2023-05-15T14:23:49.779Z,52.48
2023-05-15T14:26:20.027Z,52.83
2023-05-15T14:28:50.355Z,52.82
2023-05-15T14:31:23.911Z,53.13
2023-05-15T14:33:54.329Z,53.27
2023-05-15T14:36:24.592Z,53.62
2023-05-15T14:38:54.788Z,53.45
2023-05-15T14:41:25.062Z,53.44
2023-05-15T14:43:55.533Z,53.62
2023-05-15T14:46:26.981Z,53.86
2023-05-15T14:48:57.393Z,54.06
2023-05-15T14:51:27.710Z,53.89
2023-05-15T14:53:58.424Z,53.94
2023-05-15T14:56:29.265Z,53.98
2023-05-15T14:58:59.678Z,54.44
2023-05-15T15:01:30.395Z,54.42
2023-05-15T15:04:01.008Z,54.73
2023-05-15T15:06:32.154Z,55.16
2023-05-15T15:09:02.634Z,55.29
2023-05-15T15:11:33.724Z,55.16
2023-05-15T15:14:04.292Z,55.20
2023-05-15T15:16:34.884Z,55.72
2023-05-15T15:19:06.078Z,55.52
2023-05-15T15:21:37.290Z,55.83
2023-05-15T15:24:08.699Z,55.91
2023-05-15T15:26:40.266Z,56.34
2023-05-15T15:29:10.682Z,56.12
2023-05-15T15:31:41.350Z,56.30
2023-05-15T15:34:12.644Z,56.48
2023-05-15T15:36:44.016Z,56.19
2023-05-15T15:39:14.717Z,56.27
2023-05-15T15:41:54.735Z,56.55
2023-05-15T15:44:25.104Z,56.65
2023-05-15T15:46:55.612Z,57.29
2023-05-15T15:49:29.215Z,56.77
2023-05-15T15:51:59.530Z,57.16
2023-05-15T15:54:30.583Z,57.38
2023-05-15T15:57:03.997Z,57.17
2023-05-15T15:59:35.027Z,57.38
2023-05-15T16:02:06.189Z,57.43
2023-05-15T16:04:36.818Z,57.67
2023-05-15T16:07:07.737Z,57.65
2023-05-15T16:09:38.432Z,57.93
2023-05-15T16:12:09.195Z,58.05
2023-05-15T16:14:39.670Z,58.06
2023-05-15T16:17:10.260Z,58.37
2023-05-15T16:19:40.766Z,58.26
2023-05-15T16:22:11.491Z,58.28
2023-05-15T16:24:42.167Z,58.41
2023-05-15T16:27:12.727Z,58.51
2023-05-15T16:29:43.109Z,58.79
2023-05-15T16:32:13.604Z,58.61
2023-05-15T16:34:51.877Z,58.74
2023-05-15T16:37:28.889Z,58.93
2023-05-15T16:40:08.744Z,58.85
2023-05-15T16:42:49.427Z,59.19
2023-05-15T16:45:27.519Z,59.00
2023-05-15T16:48:09.613Z,59.86
2023-05-15T16:50:40.405Z,59.35
2023-05-15T16:53:17.894Z,59.55
2023-05-15T16:55:48.481Z,59.37
2023-05-15T16:58:20.401Z,59.43
2023-05-15T17:00:53.366Z,59.63
2023-05-15T17:03:24.299Z,59.60
2023-05-15T17:05:54.648Z,59.80
2023-05-15T17:08:28.122Z,60.53
2023-05-15T17:10:59.467Z,60.03
2023-05-15T17:13:29.961Z,60.12
2023-05-15T17:16:03.235Z,59.99
2023-05-15T17:18:33.729Z,59.74
2023-05-15T17:21:04.528Z,60.06
2023-05-15T17:23:35.271Z,60.03
2023-05-15T17:26:08.302Z,60.29
2023-05-15T17:28:39.221Z,60.33
2023-05-15T17:31:12.845Z,60.63
2023-05-15T17:33:45.993Z,60.47
2023-05-15T17:36:17.804Z,60.64
2023-05-15T17:48:46.187Z,60.99
2023-05-15T17:51:25.266Z,61.22
2023-05-15T17:53:56.030Z,61.28
2023-05-15T17:56:30.332Z,61.41
2023-05-15T17:59:00.840Z,61.57
2023-05-15T18:01:43.109Z,63.23
2023-05-15T18:04:17.293Z,61.69
2023-05-15T18:06:47.981Z,61.68
2023-05-15T18:09:23.973Z,61.92
2023-05-15T18:11:55.158Z,61.69
2023-05-15T18:14:26.233Z,61.83
2023-05-15T18:16:57.744Z,61.89
2023-05-15T18:19:28.306Z,61.88
2023-05-15T18:22:01.602Z,62.07
2023-05-15T18:24:37.467Z,62.09
2023-05-15T18:27:08.914Z,62.00
2023-05-15T18:30:12.072Z,61.94
2023-05-15T18:32:42.675Z,61.89
2023-05-15T18:35:13.349Z,62.07
2023-05-15T18:37:45.762Z,62.13
2023-05-15T18:40:19.131Z,62.52
2023-05-15T18:42:49.565Z,62.59
2023-05-15T18:45:22.174Z,62.51
2023-05-15T18:47:55.435Z,62.61
2023-05-15T18:50:25.941Z,62.60
2023-05-15T18:52:56.406Z,62.73
2023-05-15T18:55:27.881Z,62.87
2023-05-15T18:57:58.422Z,62.72
2023-05-15T19:00:38.160Z,62.75
2023-05-15T19:03:10.048Z,62.47
2023-05-15T19:05:41.080Z,62.74
2023-05-15T19:08:11.434Z,62.76
2023-05-15T19:10:41.800Z,63.18
2023-05-15T19:13:12.172Z,63.06
2023-05-15T19:15:53.329Z,64.01
2023-05-15T19:18:23.858Z,63.08
2023-05-15T19:20:54.580Z,63.17
2023-05-15T19:23:27.348Z,63.49
2023-05-15T19:25:57.598Z,63.46
2023-05-15T19:28:28.440Z,63.50
2023-05-15T19:30:58.908Z,63.56
2023-05-15T19:33:29.103Z,63.57
2023-05-15T19:36:02.245Z,63.96
2023-05-15T19:38:32.444Z,63.95
2023-05-15T19:41:02.624Z,63.71
2023-05-15T19:43:37.634Z,64.08
2023-05-15T19:46:07.977Z,63.80
2023-05-15T19:48:38.374Z,63.83
2023-05-15T19:51:08.785Z,63.99
2023-05-15T19:53:39.182Z,64.17
2023-05-15T19:56:09.866Z,64.28
2023-05-15T19:58:40.312Z,64.50
2023-05-15T20:01:10.785Z,64.20
2023-05-15T20:03:41.215Z,64.50
2023-05-15T20:06:26.992Z,64.35
2023-05-15T20:08:57.269Z,64.42
2023-05-15T20:11:27.617Z,64.36
2023-05-15T20:13:58.518Z,64.45
2023-05-15T20:16:29.008Z,64.37
2023-05-15T20:19:00.111Z,64.63
2023-05-15T20:21:32.409Z,64.73
2023-05-15T20:24:02.678Z,64.66
2023-05-15T20:26:33.061Z,64.84
2023-05-15T20:29:04.031Z,64.85
2023-05-15T20:31:34.222Z,65.19
2023-05-15T20:34:07.384Z,65.31
2023-05-15T20:36:40.596Z,65.28
2023-05-15T20:39:11.803Z,65.10
2023-05-15T20:41:42.033Z,65.81
2023-05-15T20:44:12.392Z,65.44
2023-05-15T20:46:43.910Z,65.55
2023-05-15T20:49:14.589Z,65.90
2023-05-15T20:51:44.947Z,65.89
2023-05-15T20:54:15.802Z,65.79
2023-05-15T20:56:46.425Z,65.71
2023-05-15T20:59:16.766Z,66.01
2023-05-15T21:01:46.975Z,65.98
2023-05-15T21:04:17.475Z,65.94
2023-05-15T21:06:48.633Z,66.10
2023-05-15T21:09:18.885Z,66.20
2023-05-15T21:11:49.203Z,66.10
2023-05-15T21:14:20.095Z,66.07
2023-05-15T21:16:50.425Z,66.31
2023-05-15T21:19:21.010Z,66.34
2023-05-15T21:21:51.309Z,66.74
2023-05-15T21:24:21.702Z,66.45
2023-05-15T21:26:52.044Z,66.69
2023-05-15T21:29:22.300Z,66.64
2023-05-15T21:31:52.835Z,66.70
2023-05-15T21:34:23.075Z,66.67
2023-05-15T21:36:53.570Z,66.75
2023-05-15T21:39:23.914Z,66.73
2023-05-15T21:41:54.132Z,66.74
2023-05-15T21:44:24.398Z,66.76
2023-05-15T21:46:54.827Z,66.77
2023-05-15T21:49:25.075Z,67.02
2023-05-15T21:51:55.322Z,66.82
2023-05-15T21:54:26.030Z,67.05
2023-05-15T21:56:56.360Z,66.75
2023-05-15T21:59:26.532Z,67.12
2023-05-15T22:01:56.956Z,66.99
2023-05-15T22:04:30.395Z,66.91
2023-05-15T22:07:01.156Z,66.82
2023-05-15T22:09:31.332Z,66.76
2023-05-15T22:12:01.633Z,66.91
2023-05-15T22:14:31.929Z,66.89
2023-05-15T22:17:02.210Z,66.85
2023-05-15T22:19:34.735Z,67.28
2023-05-15T22:22:05.292Z,67.01
2023-05-15T22:24:35.495Z,67.01
2023-05-15T22:27:05.955Z,67.05
2023-05-15T22:29:36.135Z,67.06
2023-05-15T22:32:06.710Z,66.92
2023-05-15T22:34:36.934Z,66.81
2023-05-15T22:37:07.166Z,67.14
2023-05-15T22:39:37.540Z,66.97
2023-05-15T22:42:07.777Z,66.91
2023-05-15T22:44:38.376Z,67.02
2023-05-15T22:47:08.720Z,67.12
2023-05-15T22:49:39.197Z,67.21
2023-05-15T22:52:11.086Z,67.23
2023-05-15T22:54:42.605Z,67.19
2023-05-15T22:57:14.185Z,67.24
2023-05-15T22:59:44.854Z,67.11
2023-05-15T23:02:15.509Z,67.37
2023-05-15T23:04:45.793Z,67.12
2023-05-15T23:07:17.545Z,67.35
2023-05-15T23:09:47.829Z,67.21
2023-05-15T23:12:18.088Z,67.39
2023-05-15T23:14:48.346Z,67.24
2023-05-15T23:17:18.702Z,67.06
2023-05-15T23:19:49.083Z,67.15
2023-05-15T23:22:19.375Z,67.28
2023-05-15T23:24:50.137Z,67.01
2023-05-15T23:27:20.287Z,66.98
2023-05-15T23:29:50.667Z,67.15
2023-05-15T23:32:21.287Z,66.92
2023-05-15T23:34:52.467Z,67.20
2023-05-15T23:37:22.812Z,67.30
2023-05-15T23:39:55.431Z,67.64
2023-05-15T23:42:25.806Z,67.27
2023-05-15T23:44:56.113Z,67.39
2023-05-15T23:47:26.466Z,67.43
2023-05-15T23:49:56.802Z,67.35
2023-05-15T23:52:27.038Z,67.31
2023-05-15T23:54:57.374Z,67.35
2023-05-15T23:57:27.692Z,67.35
2023-05-15T23:59:58.230Z,67.39
